sensor_id;sensor_type;location;lat;lon;timestamp;temperature;humidity
7920;DHT22;18778;47.610;9.776;2023-05-16T00:01:41;9.40;99.90
7920;DHT22;18778;47.610;9.776;2023-05-16T00:04:06;13.10;99.90
7920;DHT22;18778;47.610;9.776;2023-05-16T00:06:32;9.60;99.90
7920;DHT22;18778;47.610;9.776;2023-05-16T00:08:59;11.00;99.90
7920;DHT22;18778;47.610;9.776;2023-05-16T00:11:24;9.50;99.90
7920;DHT22;18778;47.610;9.776;2023-05-16T00:13:50;9.50;99.90
7920;DHT22;18778;47.610;9.776;2023-05-16T00:18:42;9.60;99.90
7920;DHT22;18778;47.610;9.776;2023-05-16T00:21:09;9.60;99.90
7920;DHT22;18778;47.610;9.776;2023-05-16T00:26:03;9.60;99.90
7920;DHT22;18778;47.610;9.776;2023-05-16T00:28:28;9.30;99.90
7920;DHT22;18778;47.610;9.776;2023-05-16T00:30:54;9.40;99.90
7920;DHT22;18778;47.610;9.776;2023-05-16T00:33:20;9.40;99.90
7920;DHT22;18778;47.610;9.776;2023-05-16T00:35:46;9.30;99.90
7920;DHT22;18778;47.610;9.776;2023-05-16T00:38:11;10.00;99.90
7920;DHT22;18778;47.610;9.776;2023-05-16T00:40:37;9.40;99.90
7920;DHT22;18778;47.610;9.776;2023-05-16T00:43:03;9.30;99.90
7920;DHT22;18778;47.610;9.776;2023-05-16T00:45:28;9.10;99.90
7920;DHT22;18778;47.610;9.776;2023-05-16T00:47:54;9.20;99.90
7920;DHT22;18778;47.610;9.776;2023-05-16T00:50:20;9.30;99.90
7920;DHT22;18778;47.610;9.776;2023-05-16T00:52:45;9.30;99.90
7920;DHT22;18778;47.610;9.776;2023-05-16T00:55:12;9.30;99.90
7920;DHT22;18778;47.610;9.776;2023-05-16T00:57:37;9.30;99.90
7920;DHT22;18778;47.610;9.776;2023-05-16T01:00:06;9.20;99.90
7920;DHT22;18778;47.610;9.776;2023-05-16T01:02:33;9.50;99.90
7920;DHT22;18778;47.610;9.776;2023-05-16T01:04:59;9.40;99.90
7920;DHT22;18778;47.610;9.776;2023-05-16T01:07:25;9.40;99.90
7920;DHT22;18778;47.610;9.776;2023-05-16T01:09:51;9.60;99.90
7920;DHT22;18778;47.610;9.776;2023-05-16T01:12:36;12.80;99.90
7920;DHT22;18778;47.610;9.776;2023-05-16T01:15:17;9.50;99.90
7920;DHT22;18778;47.610;9.776;2023-05-16T01:17:47;10.70;99.90
7920;DHT22;18778;47.610;9.776;2023-05-16T01:20:31;9.40;99.90
7920;DHT22;18778;47.610;9.776;2023-05-16T01:26:23;9.50;99.90
7920;DHT22;18778;47.610;9.776;2023-05-16T01:28:50;9.50;99.90
7920;DHT22;18778;47.610;9.776;2023-05-16T01:31:17;9.40;99.90
7920;DHT22;18778;47.610;9.776;2023-05-16T01:33:43;9.30;99.90
7920;DHT22;18778;47.610;9.776;2023-05-16T01:39:19;9.10;99.90
7920;DHT22;18778;47.610;9.776;2023-05-16T01:42:13;9.60;99.90
7920;DHT22;18778;47.610;9.776;2023-05-16T01:44:49;9.10;99.90
7920;DHT22;18778;47.610;9.776;2023-05-16T01:47:19;9.00;99.90
7920;DHT22;18778;47.610;9.776;2023-05-16T01:50:02;9.20;99.90
7920;DHT22;18778;47.610;9.776;2023-05-16T01:52:31;9.30;99.90
7920;DHT22;18778;47.610;9.776;2023-05-16T01:55:00;9.10;99.90
7920;DHT22;18778;47.610;9.776;2023-05-16T01:57:27;9.50;99.90
7920;DHT22;18778;47.610;9.776;2023-05-16T01:59:53;9.00;99.90
7920;DHT22;18778;47.610;9.776;2023-05-16T02:02:19;9.50;99.90
7920;DHT22;18778;47.610;9.776;2023-05-16T02:04:45;9.60;99.90
7920;DHT22;18778;47.610;9.776;2023-05-16T02:07:11;9.60;99.90
7920;DHT22;18778;47.610;9.776;2023-05-16T02:12:05;9.60;99.90
7920;DHT22;18778;47.610;9.776;2023-05-16T02:14:30;9.60;99.90
7920;DHT22;18778;47.610;9.776;2023-05-16T02:16:56;9.00;99.90
7920;DHT22;18778;47.610;9.776;2023-05-16T02:19:22;9.50;99.90
7920;DHT22;18778;47.610;9.776;2023-05-16T02:21:47;9.60;99.90
7920;DHT22;18778;47.610;9.776;2023-05-16T02:24:13;9.60;99.90
7920;DHT22;18778;47.610;9.776;2023-05-16T02:26:39;9.60;99.90
7920;DHT22;18778;47.610;9.776;2023-05-16T02:29:04;9.70;99.90
7920;DHT22;18778;47.610;9.776;2023-05-16T02:31:31;9.60;99.90
7920;DHT22;18778;47.610;9.776;2023-05-16T02:33:58;9.40;99.90
7920;DHT22;18778;47.610;9.776;2023-05-16T02:36:24;9.50;99.90
7920;DHT22;18778;47.610;9.776;2023-05-16T02:38:49;9.30;99.90
7920;DHT22;18778;47.610;9.776;2023-05-16T02:41:15;9.40;99.90
7920;DHT22;18778;47.610;9.776;2023-05-16T02:43:40;9.50;99.90
7920;DHT22;18778;47.610;9.776;2023-05-16T02:46:22;9.70;99.90
7920;DHT22;18778;47.610;9.776;2023-05-16T02:48:49;8.60;99.90
7920;DHT22;18778;47.610;9.776;2023-05-16T02:51:15;9.50;99.90
7920;DHT22;18778;47.610;9.776;2023-05-16T02:53:40;9.80;99.90
7920;DHT22;18778;47.610;9.776;2023-05-16T02:56:06;9.60;99.90
7920;DHT22;18778;47.610;9.776;2023-05-16T02:58:32;9.70;99.90
7920;DHT22;18778;47.610;9.776;2023-05-16T03:00:58;9.70;99.90
7920;DHT22;18778;47.610;9.776;2023-05-16T03:03:24;9.50;99.90
7920;DHT22;18778;47.610;9.776;2023-05-16T03:05:49;9.50;99.90
7920;DHT22;18778;47.610;9.776;2023-05-16T03:08:16;9.60;99.90
7920;DHT22;18778;47.610;9.776;2023-05-16T03:10:42;9.20;99.90
7920;DHT22;18778;47.610;9.776;2023-05-16T03:13:08;9.50;99.90
7920;DHT22;18778;47.610;9.776;2023-05-16T03:15:33;9.50;99.90
7920;DHT22;18778;47.610;9.776;2023-05-16T03:17:59;9.60;99.90
7920;DHT22;18778;47.610;9.776;2023-05-16T03:20:25;9.20;99.90
7920;DHT22;18778;47.610;9.776;2023-05-16T03:22:50;9.50;99.90
7920;DHT22;18778;47.610;9.776;2023-05-16T03:25:16;9.50;99.90
7920;DHT22;18778;47.610;9.776;2023-05-16T03:27:41;12.90;99.90
7920;DHT22;18778;47.610;9.776;2023-05-16T03:30:07;9.50;99.90
7920;DHT22;18778;47.610;9.776;2023-05-16T03:32:33;9.60;99.90
7920;DHT22;18778;47.610;9.776;2023-05-16T03:34:59;9.60;99.90
7920;DHT22;18778;47.610;9.776;2023-05-16T03:37:24;9.60;99.90
7920;DHT22;18778;47.610;9.776;2023-05-16T03:39:50;9.60;99.90
7920;DHT22;18778;47.610;9.776;2023-05-16T03:42:16;9.60;99.90
7920;DHT22;18778;47.610;9.776;2023-05-16T03:44:43;9.40;99.90
7920;DHT22;18778;47.610;9.776;2023-05-16T03:47:08;9.60;99.90
7920;DHT22;18778;47.610;9.776;2023-05-16T03:49:34;9.60;99.90
7920;DHT22;18778;47.610;9.776;2023-05-16T03:52:01;9.60;99.90
7920;DHT22;18778;47.610;9.776;2023-05-16T03:54:27;9.00;99.90
7920;DHT22;18778;47.610;9.776;2023-05-16T03:56:52;11.90;99.90
7920;DHT22;18778;47.610;9.776;2023-05-16T03:59:18;11.60;99.90
7920;DHT22;18778;47.610;9.776;2023-05-16T04:01:44;9.70;99.90
7920;DHT22;18778;47.610;9.776;2023-05-16T04:04:09;9.40;99.90
7920;DHT22;18778;47.610;9.776;2023-05-16T04:06:35;9.80;99.90
7920;DHT22;18778;47.610;9.776;2023-05-16T04:09:00;9.80;99.90
7920;DHT22;18778;47.610;9.776;2023-05-16T04:11:26;9.70;99.90
7920;DHT22;18778;47.610;9.776;2023-05-16T04:13:51;9.40;99.90
7920;DHT22;18778;47.610;9.776;2023-05-16T04:16:18;9.80;99.90
7920;DHT22;18778;47.610;9.776;2023-05-16T04:18:44;12.50;99.90
7920;DHT22;18778;47.610;9.776;2023-05-16T04:21:09;12.40;99.90
7920;DHT22;18778;47.610;9.776;2023-05-16T04:23:39;9.50;99.90
7920;DHT22;18778;47.610;9.776;2023-05-16T04:26:05;12.70;99.90
7920;DHT22;18778;47.610;9.776;2023-05-16T04:28:31;9.80;99.90
7920;DHT22;18778;47.610;9.776;2023-05-16T04:30:57;9.60;99.90
7920;DHT22;18778;47.610;9.776;2023-05-16T04:33:22;9.80;99.90
7920;DHT22;18778;47.610;9.776;2023-05-16T04:35:48;9.50;99.90
7920;DHT22;18778;47.610;9.776;2023-05-16T04:38:14;9.90;99.90
7920;DHT22;18778;47.610;9.776;2023-05-16T04:40:40;9.90;99.90
7920;DHT22;18778;47.610;9.776;2023-05-16T04:43:08;10.10;99.90
7920;DHT22;18778;47.610;9.776;2023-05-16T04:45:34;9.90;99.90
7920;DHT22;18778;47.610;9.776;2023-05-16T04:48:00;9.50;99.90
7920;DHT22;18778;47.610;9.776;2023-05-16T04:50:26;10.00;99.90
7920;DHT22;18778;47.610;9.776;2023-05-16T04:52:51;9.30;99.90
7920;DHT22;18778;47.610;9.776;2023-05-16T04:55:17;10.00;99.90
7920;DHT22;18778;47.610;9.776;2023-05-16T04:57:42;10.60;99.90
7920;DHT22;18778;47.610;9.776;2023-05-16T05:00:09;10.00;99.90
7920;DHT22;18778;47.610;9.776;2023-05-16T05:02:37;10.20;99.90
7920;DHT22;18778;47.610;9.776;2023-05-16T05:05:03;10.30;99.90
7920;DHT22;18778;47.610;9.776;2023-05-16T05:07:29;10.40;99.90
7920;DHT22;18778;47.610;9.776;2023-05-16T05:09:54;10.50;99.90
7920;DHT22;18778;47.610;9.776;2023-05-16T05:12:21;10.60;99.90
7920;DHT22;18778;47.610;9.776;2023-05-16T05:14:46;12.20;99.90
7920;DHT22;18778;47.610;9.776;2023-05-16T05:17:12;12.00;99.90
7920;DHT22;18778;47.610;9.776;2023-05-16T05:19:38;10.90;99.90
7920;DHT22;18778;47.610;9.776;2023-05-16T05:22:03;10.20;99.90
7920;DHT22;18778;47.610;9.776;2023-05-16T05:24:29;11.00;99.90
7920;DHT22;18778;47.610;9.776;2023-05-16T05:26:55;12.40;99.90
7920;DHT22;18778;47.610;9.776;2023-05-16T05:29:21;11.00;99.90
7920;DHT22;18778;47.610;9.776;2023-05-16T05:31:46;11.00;99.90
7920;DHT22;18778;47.610;9.776;2023-05-16T05:34:12;11.00;99.90
7920;DHT22;18778;47.610;9.776;2023-05-16T05:36:38;11.40;99.90
7920;DHT22;18778;47.610;9.776;2023-05-16T05:39:03;12.00;99.90
7920;DHT22;18778;47.610;9.776;2023-05-16T05:41:29;11.20;99.90
7920;DHT22;18778;47.610;9.776;2023-05-16T05:43:55;11.00;99.90
7920;DHT22;18778;47.610;9.776;2023-05-16T05:46:20;11.00;99.90
7920;DHT22;18778;47.610;9.776;2023-05-16T05:48:46;11.00;99.90
7920;DHT22;18778;47.610;9.776;2023-05-16T05:51:12;12.90;99.90
7920;DHT22;18778;47.610;9.776;2023-05-16T05:53:39;11.60;99.90
7920;DHT22;18778;47.610;9.776;2023-05-16T05:56:05;11.10;99.90
7920;DHT22;18778;47.610;9.776;2023-05-16T05:58:31;11.20;99.90
7920;DHT22;18778;47.610;9.776;2023-05-16T06:00:56;11.20;99.90
7920;DHT22;18778;47.610;9.776;2023-05-16T06:03:22;11.30;99.90
7920;DHT22;18778;47.610;9.776;2023-05-16T06:05:47;11.40;99.90
7920;DHT22;18778;47.610;9.776;2023-05-16T06:08:13;11.60;99.90
7920;DHT22;18778;47.610;9.776;2023-05-16T06:15:31;12.00;99.90
7920;DHT22;18778;47.610;9.776;2023-05-16T06:17:56;12.10;99.90
7920;DHT22;18778;47.610;9.776;2023-05-16T06:20:22;12.30;99.90
7920;DHT22;18778;47.610;9.776;2023-05-16T06:27:44;12.80;99.90
7920;DHT22;18778;47.610;9.776;2023-05-16T06:30:10;13.00;99.90
7920;DHT22;18778;47.610;9.776;2023-05-16T06:32:38;13.00;99.90
7920;DHT22;18778;47.610;9.776;2023-05-16T06:35:06;13.20;99.90
7920;DHT22;18778;47.610;9.776;2023-05-16T06:37:34;13.40;99.90
7920;DHT22;18778;47.610;9.776;2023-05-16T06:39:59;13.40;99.90
7920;DHT22;18778;47.610;9.776;2023-05-16T06:42:25;13.40;99.90
7920;DHT22;18778;47.610;9.776;2023-05-16T06:44:51;13.20;99.90
7920;DHT22;18778;47.610;9.776;2023-05-16T06:49:42;12.90;99.90
7920;DHT22;18778;47.610;9.776;2023-05-16T06:52:08;12.90;99.90
7920;DHT22;18778;47.610;9.776;2023-05-16T06:54:34;13.00;99.90
7920;DHT22;18778;47.610;9.776;2023-05-16T06:57:00;13.10;99.90
7920;DHT22;18778;47.610;9.776;2023-05-16T06:59:27;13.40;99.90
7920;DHT22;18778;47.610;9.776;2023-05-16T07:01:53;14.00;99.90
7920;DHT22;18778;47.610;9.776;2023-05-16T07:04:19;14.00;99.90
7920;DHT22;18778;47.610;9.776;2023-05-16T07:06:44;14.10;99.90
7920;DHT22;18778;47.610;9.776;2023-05-16T07:09:10;14.20;99.90
7920;DHT22;18778;47.610;9.776;2023-05-16T07:11:36;14.30;99.90
7920;DHT22;18778;47.610;9.776;2023-05-16T07:14:02;14.50;99.90
7920;DHT22;18778;47.610;9.776;2023-05-16T07:16:27;14.70;99.90
7920;DHT22;18778;47.610;9.776;2023-05-16T07:18:53;14.70;99.90
7920;DHT22;18778;47.610;9.776;2023-05-16T07:21:19;14.80;99.90
7920;DHT22;18778;47.610;9.776;2023-05-16T07:23:44;14.80;99.90
7920;DHT22;18778;47.610;9.776;2023-05-16T07:26:11;14.70;99.90
7920;DHT22;18778;47.610;9.776;2023-05-16T07:28:36;14.90;99.90
7920;DHT22;18778;47.610;9.776;2023-05-16T07:31:02;15.00;99.90
7920;DHT22;18778;47.610;9.776;2023-05-16T07:33:28;15.40;99.90
7920;DHT22;18778;47.610;9.776;2023-05-16T07:35:53;15.40;99.90
7920;DHT22;18778;47.610;9.776;2023-05-16T07:38:23;15.50;99.90
7920;DHT22;18778;47.610;9.776;2023-05-16T07:40:49;15.60;99.90
7920;DHT22;18778;47.610;9.776;2023-05-16T07:43:15;15.50;99.90
7920;DHT22;18778;47.610;9.776;2023-05-16T07:45:40;15.20;99.90
7920;DHT22;18778;47.610;9.776;2023-05-16T07:48:06;17.40;99.90
7920;DHT22;18778;47.610;9.776;2023-05-16T07:50:32;16.00;99.90
7920;DHT22;18778;47.610;9.776;2023-05-16T07:52:57;15.00;99.90
7920;DHT22;18778;47.610;9.776;2023-05-16T07:55:23;15.30;99.90
7920;DHT22;18778;47.610;9.776;2023-05-16T07:57:49;16.30;99.90
7920;DHT22;18778;47.610;9.776;2023-05-16T08:00:16;15.50;99.90
7920;DHT22;18778;47.610;9.776;2023-05-16T08:02:41;15.60;99.90
7920;DHT22;18778;47.610;9.776;2023-05-16T08:05:08;15.70;99.90
7920;DHT22;18778;47.610;9.776;2023-05-16T08:07:33;15.90;99.90
7920;DHT22;18778;47.610;9.776;2023-05-16T08:09:59;15.50;99.90
7920;DHT22;18778;47.610;9.776;2023-05-16T08:12:25;15.20;99.90
7920;DHT22;18778;47.610;9.776;2023-05-16T08:14:51;15.00;99.90
7920;DHT22;18778;47.610;9.776;2023-05-16T08:17:17;14.90;99.90
7920;DHT22;18778;47.610;9.776;2023-05-16T08:19:43;14.60;99.90
7920;DHT22;18778;47.610;9.776;2023-05-16T08:22:09;14.60;99.90
7920;DHT22;18778;47.610;9.776;2023-05-16T08:24:34;15.80;99.90
7920;DHT22;18778;47.610;9.776;2023-05-16T08:27:00;16.60;99.90
7920;DHT22;18778;47.610;9.776;2023-05-16T08:29:26;15.00;99.90
7920;DHT22;18778;47.610;9.776;2023-05-16T08:31:51;15.10;99.90
7920;DHT22;18778;47.610;9.776;2023-05-16T08:34:17;15.10;99.90
7920;DHT22;18778;47.610;9.776;2023-05-16T08:36:43;15.20;99.90
7920;DHT22;18778;47.610;9.776;2023-05-16T08:39:09;15.20;99.90
7920;DHT22;18778;47.610;9.776;2023-05-16T08:41:36;15.20;99.90
7920;DHT22;18778;47.610;9.776;2023-05-16T08:44:02;15.30;99.90
7920;DHT22;18778;47.610;9.776;2023-05-16T08:46:28;15.20;99.90
7920;DHT22;18778;47.610;9.776;2023-05-16T08:48:58;14.90;99.90
7920;DHT22;18778;47.610;9.776;2023-05-16T08:51:26;14.90;99.90
7920;DHT22;18778;47.610;9.776;2023-05-16T08:53:59;15.10;99.90
7920;DHT22;18778;47.610;9.776;2023-05-16T08:56:27;15.00;99.90
7920;DHT22;18778;47.610;9.776;2023-05-16T09:01:21;15.50;99.90
7920;DHT22;18778;47.610;9.776;2023-05-16T09:03:50;15.40;99.90
7920;DHT22;18778;47.610;9.776;2023-05-16T09:08:43;15.70;99.90
7920;DHT22;18778;47.610;9.776;2023-05-16T09:11:09;15.70;99.90
7920;DHT22;18778;47.610;9.776;2023-05-16T09:13:36;15.50;99.90
7920;DHT22;18778;47.610;9.776;2023-05-16T09:16:09;15.40;99.90
7920;DHT22;18778;47.610;9.776;2023-05-16T09:18:35;15.40;99.90
7920;DHT22;18778;47.610;9.776;2023-05-16T09:21:02;15.40;99.90
7920;DHT22;18778;47.610;9.776;2023-05-16T09:23:28;15.50;99.90
7920;DHT22;18778;47.610;9.776;2023-05-16T09:25:56;15.50;99.90
7920;DHT22;18778;47.610;9.776;2023-05-16T09:28:22;15.80;99.90
7920;DHT22;18778;47.610;9.776;2023-05-16T09:30:47;15.30;99.90
7920;DHT22;18778;47.610;9.776;2023-05-16T09:33:14;15.10;99.90
7920;DHT22;18778;47.610;9.776;2023-05-16T09:38:13;15.50;99.90
7920;DHT22;18778;47.610;9.776;2023-05-16T09:40:40;15.40;99.90
7920;DHT22;18778;47.610;9.776;2023-05-16T09:43:09;15.40;99.90
7920;DHT22;18778;47.610;9.776;2023-05-16T09:45:35;15.50;99.90
7920;DHT22;18778;47.610;9.776;2023-05-16T09:48:04;15.80;99.90
7920;DHT22;18778;47.610;9.776;2023-05-16T09:50:32;15.70;99.90
7920;DHT22;18778;47.610;9.776;2023-05-16T09:52:58;15.90;99.90
7920;DHT22;18778;47.610;9.776;2023-05-16T09:55:24;15.70;99.90
7920;DHT22;18778;47.610;9.776;2023-05-16T09:57:50;15.70;99.90
7920;DHT22;18778;47.610;9.776;2023-05-16T10:00:16;17.00;99.90
7920;DHT22;18778;47.610;9.776;2023-05-16T10:02:42;15.70;99.90
7920;DHT22;18778;47.610;9.776;2023-05-16T10:05:08;15.60;99.90
7920;DHT22;18778;47.610;9.776;2023-05-16T10:07:34;15.80;99.90
7920;DHT22;18778;47.610;9.776;2023-05-16T10:10:06;18.30;99.90
7920;DHT22;18778;47.610;9.776;2023-05-16T10:12:35;16.40;99.90
7920;DHT22;18778;47.610;9.776;2023-05-16T10:15:04;16.60;99.90
7920;DHT22;18778;47.610;9.776;2023-05-16T10:17:32;16.60;99.90
7920;DHT22;18778;47.610;9.776;2023-05-16T10:20:01;16.30;99.90
7920;DHT22;18778;47.610;9.776;2023-05-16T10:22:33;16.30;99.90
7920;DHT22;18778;47.610;9.776;2023-05-16T10:25:24;16.20;99.90
7920;DHT22;18778;47.610;9.776;2023-05-16T10:27:50;16.40;99.90
7920;DHT22;18778;47.610;9.776;2023-05-16T10:30:17;16.40;99.90
7920;DHT22;18778;47.610;9.776;2023-05-16T10:32:45;16.40;99.90
7920;DHT22;18778;47.610;9.776;2023-05-16T10:35:12;16.40;99.90
7920;DHT22;18778;47.610;9.776;2023-05-16T10:40:20;16.60;99.90
7920;DHT22;18778;47.610;9.776;2023-05-16T10:43:03;16.70;99.90
7920;DHT22;18778;47.610;9.776;2023-05-16T10:48:03;16.90;99.90
7920;DHT22;18778;47.610;9.776;2023-05-16T10:50:40;16.80;99.90
7920;DHT22;18778;47.610;9.776;2023-05-16T10:53:29;16.80;99.90
7920;DHT22;18778;47.610;9.776;2023-05-16T11:01:22;17.30;99.90
7920;DHT22;18778;47.610;9.776;2023-05-16T11:09:20;16.30;99.90
7920;DHT22;18778;47.610;9.776;2023-05-16T11:12:00;16.00;99.90
7920;DHT22;18778;47.610;9.776;2023-05-16T11:17:20;15.50;99.90
7920;DHT22;18778;47.610;9.776;2023-05-16T11:19:51;15.50;99.90
7920;DHT22;18778;47.610;9.776;2023-05-16T11:24:51;15.70;99.90
7920;DHT22;18778;47.610;9.776;2023-05-16T11:32:19;14.30;99.90
7920;DHT22;18778;47.610;9.776;2023-05-16T11:47:00;12.80;99.90
7920;DHT22;18778;47.610;9.776;2023-05-16T12:09:11;12.40;99.90
7920;DHT22;18778;47.610;9.776;2023-05-16T12:11:39;12.00;99.90
7920;DHT22;18778;47.610;9.776;2023-05-16T12:14:14;11.70;99.90
7920;DHT22;18778;47.610;9.776;2023-05-16T12:19:11;11.60;99.90
7920;DHT22;18778;47.610;9.776;2023-05-16T12:29:20;11.50;99.90
7920;DHT22;18778;47.610;9.776;2023-05-16T12:31:54;11.60;99.90
7920;DHT22;18778;47.610;9.776;2023-05-16T12:44:18;11.70;99.90
7920;DHT22;18778;47.610;9.776;2023-05-16T12:46:53;11.80;99.90
7920;DHT22;18778;47.610;9.776;2023-05-16T12:49:20;11.90;99.90
7920;DHT22;18778;47.610;9.776;2023-05-16T13:11:26;11.70;99.90
7920;DHT22;18778;47.610;9.776;2023-05-16T13:16:18;11.50;99.90
7920;DHT22;18778;47.610;9.776;2023-05-16T13:18:44;11.50;99.90
7920;DHT22;18778;47.610;9.776;2023-05-16T13:23:35;11.40;99.90
7920;DHT22;18778;47.610;9.776;2023-05-16T13:28:27;11.30;99.90
7920;DHT22;18778;47.610;9.776;2023-05-16T13:30:52;11.30;99.90
7920;DHT22;18778;47.610;9.776;2023-05-16T13:33:18;11.40;99.90
7920;DHT22;18778;47.610;9.776;2023-05-16T13:35:43;11.30;99.90
7920;DHT22;18778;47.610;9.776;2023-05-16T13:40:35;11.40;99.90
7920;DHT22;18778;47.610;9.776;2023-05-16T13:43:01;11.50;99.90
7920;DHT22;18778;47.610;9.776;2023-05-16T13:45:27;11.50;99.90
7920;DHT22;18778;47.610;9.776;2023-05-16T13:50:19;11.60;99.90
7920;DHT22;18778;47.610;9.776;2023-05-16T14:02:40;12.30;99.90
7920;DHT22;18778;47.610;9.776;2023-05-16T15:06:17;12.60;99.90
7920;DHT22;18778;47.610;9.776;2023-05-16T15:11:09;12.50;99.90
7920;DHT22;18778;47.610;9.776;2023-05-16T15:16:01;12.80;99.90
7920;DHT22;18778;47.610;9.776;2023-05-16T15:18:27;13.00;99.90
7920;DHT22;18778;47.610;9.776;2023-05-16T15:40:22;12.40;99.90
7920;DHT22;18778;47.610;9.776;2023-05-16T16:44:07;11.90;99.90
7920;DHT22;18778;47.610;9.776;2023-05-16T16:46:33;11.80;99.90
7920;DHT22;18778;47.610;9.776;2023-05-16T16:51:27;11.90;99.90
7920;DHT22;18778;47.610;9.776;2023-05-16T17:01:12;11.70;99.90
7920;DHT22;18778;47.610;9.776;2023-05-16T17:03:37;11.50;99.90
7920;DHT22;18778;47.610;9.776;2023-05-16T17:08:29;11.50;99.90
7920;DHT22;18778;47.610;9.776;2023-05-16T17:10:54;11.40;99.90
7920;DHT22;18778;47.610;9.776;2023-05-16T17:15:46;11.30;99.90
7920;DHT22;18778;47.610;9.776;2023-05-16T17:18:12;11.10;99.90
7920;DHT22;18778;47.610;9.776;2023-05-16T17:20:38;14.80;99.90
7920;DHT22;18778;47.610;9.776;2023-05-16T17:23:04;11.00;99.90
7920;DHT22;18778;47.610;9.776;2023-05-16T17:30:25;11.00;99.90
7920;DHT22;18778;47.610;9.776;2023-05-16T17:37:44;10.80;99.90
7920;DHT22;18778;47.610;9.776;2023-05-16T17:40:12;10.80;99.90
7920;DHT22;18778;47.610;9.776;2023-05-16T17:45:07;10.60;99.90
7920;DHT22;18778;47.610;9.776;2023-05-16T17:47:33;10.50;99.90
7920;DHT22;18778;47.610;9.776;2023-05-16T17:49:58;10.40;99.90
7920;DHT22;18778;47.610;9.776;2023-05-16T18:31:32;10.20;99.90
7920;DHT22;18778;47.610;9.776;2023-05-16T19:32:34;10.00;99.90
7920;DHT22;18778;47.610;9.776;2023-05-16T19:44:43;9.90;99.90
7920;DHT22;18778;47.610;9.776;2023-05-16T19:52:01;9.80;99.90
7920;DHT22;18778;47.610;9.776;2023-05-16T19:54:29;9.70;99.90
7920;DHT22;18778;47.610;9.776;2023-05-16T19:56:57;9.70;99.90
7920;DHT22;18778;47.610;9.776;2023-05-16T20:01:51;9.60;99.90
7920;DHT22;18778;47.610;9.776;2023-05-16T20:31:10;9.40;99.90
7920;DHT22;18778;47.610;9.776;2023-05-16T20:38:28;9.30;99.90
7920;DHT22;18778;47.610;9.776;2023-05-16T20:40:53;9.20;99.90
7920;DHT22;18778;47.610;9.776;2023-05-16T20:43:19;9.20;99.90
7920;DHT22;18778;47.610;9.776;2023-05-16T20:45:44;9.30;99.90
7920;DHT22;18778;47.610;9.776;2023-05-16T20:48:10;9.20;99.90
7920;DHT22;18778;47.610;9.776;2023-05-16T20:53:04;9.10;99.90
7920;DHT22;18778;47.610;9.776;2023-05-16T20:55:29;9.10;99.90
7920;DHT22;18778;47.610;9.776;2023-05-16T21:10:07;9.00;99.90
7920;DHT22;18778;47.610;9.776;2023-05-16T21:14:58;9.00;99.90
7920;DHT22;18778;47.610;9.776;2023-05-16T21:19:50;9.00;99.90
7920;DHT22;18778;47.610;9.776;2023-05-16T21:22:16;9.00;99.90
7920;DHT22;18778;47.610;9.776;2023-05-16T21:24:41;8.90;99.90
7920;DHT22;18778;47.610;9.776;2023-05-16T21:34:25;8.90;99.90
7920;DHT22;18778;47.610;9.776;2023-05-16T21:41:44;8.80;99.90
7920;DHT22;18778;47.610;9.776;2023-05-16T21:44:10;8.70;99.90
7920;DHT22;18778;47.610;9.776;2023-05-16T21:46:44;8.80;99.90
7920;DHT22;18778;47.610;9.776;2023-05-16T21:49:10;8.70;99.90
7920;DHT22;18778;47.610;9.776;2023-05-16T21:51:36;8.80;99.90
7920;DHT22;18778;47.610;9.776;2023-05-16T21:56:28;8.70;99.90
7920;DHT22;18778;47.610;9.776;2023-05-16T22:03:52;8.80;99.90
7920;DHT22;18778;47.610;9.776;2023-05-16T22:40:24;8.70;99.90
7920;DHT22;18778;47.610;9.776;2023-05-16T22:42:51;8.70;99.90
7920;DHT22;18778;47.610;9.776;2023-05-16T22:45:17;8.70;99.90
7920;DHT22;18778;47.610;9.776;2023-05-16T22:47:42;8.70;99.90
7920;DHT22;18778;47.610;9.776;2023-05-16T22:50:08;8.50;99.90
7920;DHT22;18778;47.610;9.776;2023-05-16T22:55:06;8.60;99.90
7920;DHT22;18778;47.610;9.776;2023-05-16T22:59:57;8.50;99.90
7920;DHT22;18778;47.610;9.776;2023-05-16T23:02:24;8.40;99.90
7920;DHT22;18778;47.610;9.776;2023-05-16T23:04:50;8.50;99.90
7920;DHT22;18778;47.610;9.776;2023-05-16T23:07:16;8.50;99.90
7920;DHT22;18778;47.610;9.776;2023-05-16T23:09:42;8.10;99.90
7920;DHT22;18778;47.610;9.776;2023-05-16T23:12:08;8.50;99.90
7920;DHT22;18778;47.610;9.776;2023-05-16T23:14:33;8.60;99.90
7920;DHT22;18778;47.610;9.776;2023-05-16T23:16:59;11.30;99.90
7920;DHT22;18778;47.610;9.776;2023-05-16T23:19:25;8.20;99.90
7920;DHT22;18778;47.610;9.776;2023-05-16T23:21:50;8.50;99.90
7920;DHT22;18778;47.610;9.776;2023-05-16T23:24:16;8.50;99.90
7920;DHT22;18778;47.610;9.776;2023-05-16T23:26:42;8.40;99.90
7920;DHT22;18778;47.610;9.776;2023-05-16T23:29:07;8.40;99.90
7920;DHT22;18778;47.610;9.776;2023-05-16T23:31:33;8.40;99.90
7920;DHT22;18778;47.610;9.776;2023-05-16T23:33:58;8.50;99.90
7920;DHT22;18778;47.610;9.776;2023-05-16T23:36:24;8.40;99.90
7920;DHT22;18778;47.610;9.776;2023-05-16T23:38:50;10.80;99.90
7920;DHT22;18778;47.610;9.776;2023-05-16T23:41:15;8.50;99.90
7920;DHT22;18778;47.610;9.776;2023-05-16T23:43:41;8.40;99.90
7920;DHT22;18778;47.610;9.776;2023-05-16T23:46:06;8.20;99.90
7920;DHT22;18778;47.610;9.776;2023-05-16T23:48:32;8.40;99.90
7920;DHT22;18778;47.610;9.776;2023-05-16T23:51:00;8.40;99.90
7920;DHT22;18778;47.610;9.776;2023-05-16T23:53:25;8.30;99.90
7920;DHT22;18778;47.610;9.776;2023-05-16T23:55:54;8.40;99.90
7920;DHT22;18778;47.610;9.776;2023-05-16T23:58:19;8.40;99.90
